Time;durP1;ratioP1;P1;durP2;ratioP2;P2;SDS_P1;SDS_P2;PMS_P1;PMS_P2;Temp;Humidity;BMP_temperature;BMP_pressure;BME280_temperature;BME280_humidity;BME280_pressure;Samples;Min_cycle;Max_cycle;Signal;HPM_P1;HPM_P2
2022/11/10 00:02:13;;;;;;;1.55;0.77;;;23.90;57.10;;;;;;4050160;29;20143;-47
2022/11/10 00:04:35;;;;;;;4.43;0.90;;;23.90;56.90;;;;;;4049095;29;20033;-49
2022/11/10 00:06:58;;;;;;;6.15;0.80;;;23.90;56.80;;;;;;4048772;29;20455;-46
2022/11/10 00:09:20;;;;;;;2.00;0.57;;;23.90;56.80;;;;;;4049244;29;20420;-47
2022/11/10 00:11:43;;;;;;;1.75;0.38;;;23.90;56.70;;;;;;4052384;29;20048;-49
2022/11/10 00:17:03;;;;;;;4.13;0.55;;;24.00;56.70;;;;;;4048251;29;20036;-45
2022/11/10 00:19:28;;;;;;;2.65;0.60;;;24.00;56.60;;;;;;4048852;29;20067;-51
2022/11/10 00:21:51;;;;;;;0.77;0.57;;;24.00;56.50;;;;;;4046758;28;20112;-50
2022/11/10 00:24:14;;;;;;;1.02;0.50;;;24.00;56.50;;;;;;4046525;29;20127;-54
2022/11/10 00:26:36;;;;;;;7.80;0.80;;;24.00;56.50;;;;;;4045638;29;20036;-51
2022/11/10 00:28:59;;;;;;;3.17;0.80;;;24.00;56.60;;;;;;4045384;29;20119;-46
2022/11/10 00:31:22;;;;;;;1.58;0.50;;;24.10;56.60;;;;;;4044421;29;20439;-47
2022/11/10 00:33:44;;;;;;;3.22;0.60;;;24.10;56.70;;;;;;4040072;29;20048;-46
2022/11/10 00:36:07;;;;;;;4.47;0.77;;;24.10;56.50;;;;;;4043835;29;20071;-50
2022/11/10 00:38:30;;;;;;;3.05;0.80;;;24.20;56.60;;;;;;4044172;29;20040;-46
2022/11/10 00:40:52;;;;;;;0.50;0.30;;;24.20;56.40;;;;;;4046801;29;20111;-51
2022/11/10 00:43:15;;;;;;;2.20;0.50;;;24.20;56.40;;;;;;4042372;29;20763;-45
2022/11/10 00:45:39;;;;;;;3.10;0.50;;;24.20;56.50;;;;;;4045920;29;20036;-47
2022/11/10 00:48:02;;;;;;;3.40;0.57;;;24.20;56.40;;;;;;4046715;29;20567;-50
2022/11/10 00:50:24;;;;;;;2.10;0.52;;;24.20;56.40;;;;;;4046859;29;20052;-45
2022/11/10 00:52:47;;;;;;;0.88;0.50;;;24.30;56.40;;;;;;4045340;29;20058;-47
2022/11/10 00:55:09;;;;;;;5.43;0.93;;;24.30;56.30;;;;;;4043180;29;20040;-52
2022/11/10 00:57:32;;;;;;;1.55;0.40;;;24.30;56.40;;;;;;4044056;29;20505;-49
2022/11/10 00:59:54;;;;;;;4.38;0.40;;;24.30;56.50;;;;;;4045992;29;20135;-51
2022/11/10 01:02:18;;;;;;;3.35;0.75;;;24.30;56.50;;;;;;4044093;29;20511;-47
2022/11/10 01:04:41;;;;;;;5.10;0.95;;;24.40;56.50;;;;;;4045756;29;20131;-52
2022/11/10 01:07:03;;;;;;;4.25;0.85;;;24.40;56.40;;;;;;4049053;29;20043;-51
2022/11/10 01:09:26;;;;;;;1.20;0.55;;;24.40;56.10;;;;;;4049143;29;20446;-52
2022/11/10 01:11:48;;;;;;;0.95;0.60;;;24.40;54.90;;;;;;4052705;29;20043;-52
2022/11/10 01:14:11;;;;;;;1.42;0.50;;;24.40;54.60;;;;;;4052038;29;20052;-58
2022/11/10 01:16:33;;;;;;;8.25;0.95;;;24.50;54.50;;;;;;4042847;29;20551;-56
2022/11/10 01:18:59;;;;;;;4.75;0.80;;;24.50;54.80;;;;;;4040279;29;20045;-55
2022/11/10 01:21:23;;;;;;;8.35;0.98;;;24.50;54.90;;;;;;4040832;29;20397;-48
2022/11/10 01:23:46;;;;;;;2.92;0.75;;;24.60;54.60;;;;;;4045268;29;20515;-51
2022/11/10 01:26:08;;;;;;;1.50;0.65;;;24.60;54.40;;;;;;4044083;29;20044;-50
2022/11/10 01:28:33;;;;;;;2.35;0.50;;;24.60;54.20;;;;;;4048170;29;20567;-53
2022/11/10 01:31:04;;;;;;;2.58;0.80;;;24.60;54.00;;;;;;4049514;29;20048;-50
2022/11/10 01:33:27;;;;;;;1.65;0.55;;;24.60;53.90;;;;;;4045121;29;20649;-55
2022/11/10 01:35:49;;;;;;;1.83;1.00;;;24.60;53.80;;;;;;4040503;29;20127;-54
2022/11/10 01:38:12;;;;;;;0.95;0.60;;;24.60;53.70;;;;;;4042031;29;20047;-50
2022/11/10 01:40:34;;;;;;;3.78;1.20;;;24.60;53.60;;;;;;4042371;29;20122;-49
2022/11/10 01:42:58;;;;;;;2.85;1.08;;;24.50;53.40;;;;;;4043754;29;20040;-50
2022/11/10 01:45:24;;;;;;;2.63;1.35;;;24.60;53.50;;;;;;4043586;29;20040;-49
2022/11/10 01:47:46;;;;;;;8.75;2.10;;;24.60;53.40;;;;;;4040217;29;20044;-47
2022/11/10 01:50:09;;;;;;;6.75;2.53;;;24.60;53.90;;;;;;4044798;29;20032;-53
2022/11/10 01:52:32;;;;;;;7.30;2.58;;;24.60;54.10;;;;;;4048048;29;20139;-48
2022/11/10 01:54:54;;;;;;;8.67;2.80;;;24.60;54.00;;;;;;4039963;29;20039;-50
2022/11/10 01:57:17;;;;;;;5.65;2.20;;;24.60;54.10;;;;;;4041228;29;20271;-50
2022/11/10 01:59:45;;;;;;;9.57;2.65;;;24.60;54.10;;;;;;4042767;29;20048;-47
2022/11/10 02:02:37;;;;;;;20.63;3.22;;;24.70;54.00;;;;;;4048377;29;20274;-50
2022/11/10 02:05:01;;;;;;;14.32;2.97;;;24.70;54.40;;;;;;4046348;29;20060;-54
2022/11/10 02:07:23;;;;;;;;;;;24.70;54.40;;;;;;4045213;29;20182;-50
2022/11/10 02:09:45;;;;;;;5.47;1.50;;;24.80;54.20;;;;;;4046015;29;19915;-51
2022/11/10 02:12:08;;;;;;;5.40;1.85;;;24.80;54.00;;;;;;4048744;29;20044;-54
2022/11/10 02:14:31;;;;;;;7.82;1.60;;;24.90;53.60;;;;;;4053788;29;20078;-56
2022/11/10 02:16:53;;;;;;;4.68;1.48;;;25.00;53.40;;;;;;4049951;29;20040;-56
2022/11/10 02:19:19;;;;;;;3.33;1.50;;;24.90;54.10;;;;;;4048762;29;20040;-51
2022/11/10 02:21:42;;;;;;;8.13;1.45;;;25.00;53.50;;;;;;4046336;29;20054;-52
2022/11/10 02:24:05;;;;;;;4.40;1.67;;;25.00;54.30;;;;;;4043682;29;20071;-50
2022/11/10 02:26:29;;;;;;;5.20;1.67;;;25.10;53.60;;;;;;4044808;29;20200;-50
2022/11/10 02:28:52;;;;;;;4.95;1.55;;;25.10;53.60;;;;;;4044879;29;20039;-49
2022/11/10 02:31:14;;;;;;;3.20;1.05;;;25.10;53.80;;;;;;4045764;29;20095;-50
2022/11/10 02:33:37;;;;;;;3.35;1.30;;;25.10;54.00;;;;;;4050985;29;20183;-50
2022/11/10 02:35:59;;;;;;;3.28;1.02;;;25.10;54.50;;;;;;4052940;29;20445;-46
2022/11/10 02:38:22;;;;;;;3.85;0.90;;;25.20;54.90;;;;;;4050180;29;20131;-49
2022/11/10 02:40:45;;;;;;;1.95;1.13;;;25.30;55.00;;;;;;4045727;29;20041;-50
2022/11/10 02:43:10;;;;;;;2.20;0.50;;;25.30;55.00;;;;;;4046575;29;20563;-49
2022/11/10 02:45:33;;;;;;;3.33;1.25;;;25.40;55.10;;;;;;4044278;29;20040;-47
2022/11/10 02:47:56;;;;;;;5.28;0.70;;;25.40;55.20;;;;;;4048357;29;20040;-48
2022/11/10 02:50:18;;;;;;;3.15;0.70;;;25.40;55.10;;;;;;4046366;29;20051;-51
2022/11/10 02:52:41;;;;;;;3.17;1.02;;;25.40;55.00;;;;;;4049079;29;20044;-48
2022/11/10 02:55:03;;;;;;;1.70;0.60;;;25.50;55.00;;;;;;4046898;29;20055;-51
2022/11/10 02:57:26;;;;;;;1.27;0.63;;;25.60;55.00;;;;;;4046712;29;20043;-46
2022/11/10 02:59:48;;;;;;;2.35;0.90;;;25.60;54.90;;;;;;4045857;29;20048;-48
2022/11/10 03:02:11;;;;;;;1.33;0.55;;;25.70;54.90;;;;;;4042859;29;20480;-49
2022/11/10 03:04:33;;;;;;;1.70;0.60;;;25.70;54.80;;;;;;4048065;29;20507;-46
2022/11/10 03:06:56;;;;;;;0.98;0.57;;;25.70;54.70;;;;;;4046426;29;20048;-52
2022/11/10 03:09:19;;;;;;;0.68;0.47;;;25.80;54.80;;;;;;4047693;29;20048;-49
2022/11/10 03:11:41;;;;;;;4.60;0.85;;;25.80;54.80;;;;;;4045945;29;20088;-49
2022/11/10 03:14:04;;;;;;;0.95;0.40;;;25.80;54.70;;;;;;4044777;29;20111;-48
2022/11/10 03:16:26;;;;;;;1.08;0.63;;;25.90;54.90;;;;;;4042499;29;20077;-48
2022/11/10 03:18:49;;;;;;;0.60;0.60;;;25.90;54.70;;;;;;4042189;29;20048;-47
2022/11/10 03:21:11;;;;;;;2.40;0.68;;;26.00;54.70;;;;;;4044437;29;20052;-46
2022/11/10 03:23:35;;;;;;;8.25;0.50;;;26.00;54.60;;;;;;4057272;29;20134;-46
2022/11/10 03:25:57;;;;;;;0.75;0.50;;;26.00;54.50;;;;;;4045191;29;20100;-48
2022/11/10 03:28:20;;;;;;;1.23;0.40;;;26.10;54.40;;;;;;4045730;29;20040;-49
2022/11/10 03:30:43;;;;;;;1.85;0.40;;;26.10;54.50;;;;;;4045582;29;20041;-48
2022/11/10 03:33:05;;;;;;;0.40;0.40;;;26.10;54.30;;;;;;4049951;29;20484;-48
2022/11/10 03:35:28;;;;;;;0.45;0.40;;;26.20;54.40;;;;;;4048662;29;20059;-48
2022/11/10 03:37:50;;;;;;;4.57;0.57;;;26.20;54.40;;;;;;4050242;29;20044;-49
2022/11/10 03:40:13;;;;;;;1.70;0.60;;;26.20;54.50;;;;;;4055879;29;20175;-52
2022/11/10 03:42:35;;;;;;;1.60;0.40;;;26.30;54.40;;;;;;4061091;29;20028;-51
2022/11/10 03:44:58;;;;;;;0.90;0.40;;;26.30;54.30;;;;;;4055977;29;20047;-47
2022/11/10 03:47:20;;;;;;;1.05;0.73;;;26.30;54.30;;;;;;4057527;29;20036;-48
2022/11/10 03:49:43;;;;;;;1.25;0.32;;;26.40;54.20;;;;;;4053343;29;20047;-46
2022/11/10 03:52:05;;;;;;;2.63;0.47;;;26.40;54.10;;;;;;4051407;29;20044;-45
2022/11/10 03:54:28;;;;;;;1.67;0.40;;;26.50;54.10;;;;;;4052911;29;20057;-47
2022/11/10 03:56:50;;;;;;;0.93;0.40;;;26.50;54.10;;;;;;4055656;29;20031;-49
2022/11/10 03:59:13;;;;;;;0.93;0.45;;;26.60;54.00;;;;;;4048380;29;20131;-49
2022/11/10 04:01:36;;;;;;;0.40;0.40;;;26.60;54.00;;;;;;4050183;29;20040;-49
2022/11/10 04:03:58;;;;;;;4.40;0.60;;;26.60;54.00;;;;;;4053482;29;20412;-49
2022/11/10 04:09:02;;;;;;;0.55;0.40;;;26.70;54.00;;;;;;4050533;29;20441;-49
2022/11/10 04:16:46;;;;;;;0.22;0.22;;;26.80;53.70;;;;;;4054909;29;20051;-45
2022/11/10 04:19:08;;;;;;;0.65;0.30;;;26.90;53.70;;;;;;4051856;29;20075;-45
2022/11/10 04:21:31;;;;;;;1.05;0.52;;;26.90;53.40;;;;;;4049897;29;20064;-52
2022/11/10 04:23:53;;;;;;;1.13;0.50;;;27.00;53.50;;;;;;4054344;29;20040;-50
2022/11/10 04:26:28;;;;;;;1.52;0.40;;;27.10;53.30;;;;;;4053497;29;20047;-53
2022/11/10 04:28:53;;;;;;;0.85;0.55;;;27.20;53.20;;;;;;4052339;29;20032;-51
2022/11/10 04:31:17;;;;;;;0.50;0.40;;;27.20;53.10;;;;;;4057952;29;20073;-48
2022/11/10 04:33:41;;;;;;;0.65;0.50;;;27.30;53.20;;;;;;4054859;29;20512;-53
2022/11/10 04:36:04;;;;;;;0.90;0.40;;;27.30;53.00;;;;;;4046864;29;20052;-46
2022/11/10 04:38:26;;;;;;;0.55;0.30;;;27.40;52.90;;;;;;4043970;29;20045;-47
2022/11/10 04:40:49;;;;;;;1.20;0.32;;;27.50;52.80;;;;;;4047675;29;20040;-51
2022/11/10 04:43:11;;;;;;;2.30;0.52;;;27.60;52.80;;;;;;4052637;29;20042;-50
2022/11/10 04:45:34;;;;;;;2.67;0.65;;;27.70;52.70;;;;;;4049026;29;20131;-45
2022/11/10 04:47:57;;;;;;;4.05;0.43;;;27.80;52.50;;;;;;4048475;29;20208;-48
2022/11/10 04:50:19;;;;;;;0.55;0.30;;;27.90;52.40;;;;;;4047299;29;20041;-49
2022/11/10 04:52:42;;;;;;;0.40;0.20;;;27.90;52.30;;;;;;4046092;29;20048;-49
2022/11/10 04:55:05;;;;;;;1.45;0.30;;;28.00;52.10;;;;;;4049711;29;20055;-50
2022/11/10 04:57:27;;;;;;;1.15;0.40;;;28.10;52.10;;;;;;4050260;29;20047;-50
2022/11/10 04:59:50;;;;;;;0.88;0.50;;;28.20;52.00;;;;;;4044342;29;20036;-48
2022/11/10 05:02:12;;;;;;;0.65;0.30;;;28.20;51.90;;;;;;4046905;29;20463;-45
2022/11/10 05:04:35;;;;;;;0.73;0.20;;;28.40;51.80;;;;;;4051067;29;20044;-53
2022/11/10 05:06:58;;;;;;;0.38;0.30;;;28.40;51.40;;;;;;4054808;29;20043;-48
2022/11/10 05:09:20;;;;;;;1.10;0.30;;;28.50;51.40;;;;;;4045410;29;20040;-51
2022/11/10 05:11:42;;;;;;;1.00;0.50;;;28.60;51.50;;;;;;4042500;29;20139;-52
2022/11/10 05:14:05;;;;;;;1.65;0.55;;;28.60;51.30;;;;;;4049728;29;20330;-52
2022/11/10 05:16:28;;;;;;;0.73;0.57;;;28.70;51.20;;;;;;4046878;29;20071;-48
2022/11/10 05:18:53;;;;;;;1.30;0.38;;;28.80;51.00;;;;;;4047118;29;20044;-53
2022/11/10 05:21:16;;;;;;;2.08;0.47;;;28.90;50.80;;;;;;4046462;29;20068;-52
2022/11/10 05:23:40;;;;;;;0.80;0.30;;;28.90;51.00;;;;;;4044382;29;20643;-47
2022/11/10 05:26:10;;;;;;;3.22;0.47;;;28.90;51.20;;;;;;4048188;29;20086;-48
2022/11/10 05:28:33;;;;;;;1.73;0.50;;;28.90;51.10;;;;;;4045442;29;20032;-50
2022/11/10 05:30:56;;;;;;;0.98;0.52;;;28.80;51.20;;;;;;4044337;29;20047;-48
2022/11/10 05:33:18;;;;;;;0.63;0.20;;;28.80;51.20;;;;;;4046189;29;20070;-46
2022/11/10 05:35:41;;;;;;;2.05;0.43;;;28.90;51.40;;;;;;4049287;29;20492;-48
2022/11/10 05:38:04;;;;;;;2.17;0.47;;;28.90;51.10;;;;;;4042179;29;20044;-46
2022/11/10 05:40:27;;;;;;;0.73;0.40;;;28.90;51.20;;;;;;4046243;29;20117;-45
2022/11/10 05:42:54;;;;;;;2.38;0.40;;;28.90;51.10;;;;;;4048822;29;20051;-52
2022/11/10 05:45:16;;;;;;;1.02;0.40;;;28.90;51.00;;;;;;4045234;29;20040;-46
2022/11/10 05:47:39;;;;;;;0.20;0.20;;;29.00;51.60;;;;;;4052375;29;20942;-45
2022/11/10 05:50:03;;;;;;;0.30;0.30;;;29.00;51.80;;;;;;4047617;29;20188;-47
2022/11/10 05:52:25;;;;;;;0.25;0.25;;;29.00;51.20;;;;;;4047444;29;20075;-53
2022/11/10 05:54:48;;;;;;;0.30;0.30;;;29.10;51.50;;;;;;4048845;29;20051;-46
2022/11/10 05:57:10;;;;;;;3.13;0.40;;;29.10;51.20;;;;;;4046583;29;20032;-46
2022/11/10 05:59:33;;;;;;;1.35;0.38;;;29.10;51.20;;;;;;4055660;29;20566;-46
2022/11/10 06:01:55;;;;;;;0.43;0.30;;;29.20;51.50;;;;;;4047256;29;20036;-48
2022/11/10 06:04:18;;;;;;;1.55;0.40;;;29.20;51.40;;;;;;4041544;29;20070;-45
2022/11/10 06:06:41;;;;;;;0.20;0.20;;;29.20;51.40;;;;;;4052388;29;20040;-53
2022/11/10 06:09:03;;;;;;;1.45;0.35;;;29.30;51.10;;;;;;4048570;29;20055;-46
2022/11/10 06:11:26;;;;;;;2.27;0.30;;;29.30;50.90;;;;;;4055488;29;20076;-46
2022/11/10 06:13:48;;;;;;;0.45;0.20;;;29.30;50.70;;;;;;4048009;29;20051;-45
2022/11/10 06:16:11;;;;;;;0.55;0.20;;;29.40;50.60;;;;;;4044699;29;20051;-54
2022/11/10 06:18:33;;;;;;;2.03;0.65;;;29.40;50.80;;;;;;4046778;29;20492;-50
2022/11/10 06:20:56;;;;;;;0.88;0.43;;;29.50;50.70;;;;;;4047992;29;20099;-48
2022/11/10 06:23:18;;;;;;;1.67;0.30;;;29.50;50.50;;;;;;4046725;29;20384;-57
2022/11/10 06:25:41;;;;;;;2.25;0.63;;;29.50;50.30;;;;;;4046129;29;20727;-55
2022/11/10 06:28:05;;;;;;;0.90;0.45;;;29.40;48.30;;;;;;4036953;29;20048;-55
2022/11/10 06:30:29;;;;;;;2.92;0.68;;;29.30;47.80;;;;;;4036535;29;20407;-56
2022/11/10 06:32:52;;;;;;;0.82;0.40;;;29.20;47.60;;;;;;4022494;29;20267;-54
2022/11/10 06:35:14;;;;;;;0.52;0.40;;;29.10;47.80;;;;;;4037462;29;20176;-57
2022/11/10 06:37:38;;;;;;;0.70;0.40;;;29.00;47.80;;;;;;4034741;29;20048;-47
2022/11/10 06:40:00;;;;;;;1.05;0.50;;;29.00;48.00;;;;;;4039295;29;20273;-52
2022/11/10 06:42:23;;;;;;;2.00;0.60;;;28.90;48.50;;;;;;4037070;29;20036;-47
2022/11/10 06:44:45;;;;;;;0.50;0.40;;;28.90;50.00;;;;;;4037222;29;20044;-58
2022/11/10 06:47:08;;;;;;;2.60;0.80;;;29.00;49.30;;;;;;4039959;29;20094;-58
2022/11/10 06:49:30;;;;;;;1.45;0.40;;;28.90;48.70;;;;;;4035001;29;20055;-58
2022/11/10 06:51:53;;;;;;;1.88;0.43;;;28.90;48.30;;;;;;4037877;29;20045;-58
2022/11/10 06:54:15;;;;;;;0.47;0.30;;;28.80;48.10;;;;;;4041122;29;20365;-58
2022/11/10 06:56:38;;;;;;;1.38;0.43;;;28.80;48.00;;;;;;4040546;29;20123;-58
2022/11/10 06:59:01;;;;;;;0.68;0.40;;;28.70;48.10;;;;;;4037441;29;20483;-58
2022/11/10 07:01:27;;;;;;;0.68;0.40;;;28.60;48.20;;;;;;4040273;29;20492;-58
2022/11/10 07:03:49;;;;;;;0.60;0.40;;;28.50;48.10;;;;;;4034600;29;20041;-58
2022/11/10 07:06:11;;;;;;;0.57;0.40;;;28.50;48.20;;;;;;4035683;29;20040;-57
2022/11/10 07:08:34;;;;;;;0.60;0.40;;;28.50;48.40;;;;;;4037283;29;20559;-57
2022/11/10 07:10:57;;;;;;;2.60;0.60;;;28.40;48.40;;;;;;4040659;29;20036;-58
2022/11/10 07:13:20;;;;;;;1.27;0.98;;;28.30;48.40;;;;;;4042506;29;20056;-58
2022/11/10 07:15:43;;;;;;;1.80;1.17;;;28.30;48.50;;;;;;4035602;29;20337;-58
2022/11/10 07:18:05;;;;;;;3.03;1.60;;;28.30;48.60;;;;;;4037877;29;20058;-57
2022/11/10 07:20:28;;;;;;;1.73;1.15;;;28.20;48.70;;;;;;4040832;29;20635;-57
2022/11/10 07:23:00;;;;;;;2.90;1.35;;;28.20;48.90;;;;;;4049264;29;20130;-57
2022/11/10 07:25:23;;;;;;;2.88;1.00;;;28.20;49.00;;;;;;4049715;29;20480;-57
2022/11/10 07:27:45;;;;;;;3.00;0.93;;;28.10;48.90;;;;;;4049780;29;20050;-57
2022/11/10 07:30:08;;;;;;;0.93;0.70;;;28.00;48.80;;;;;;4048161;29;20111;-56
2022/11/10 07:32:31;;;;;;;1.98;1.33;;;28.00;49.00;;;;;;4052026;29;20293;-57
2022/11/10 07:34:54;;;;;;;2.43;1.30;;;28.00;49.10;;;;;;4044900;29;20167;-57
2022/11/10 07:37:16;;;;;;;4.60;1.27;;;28.00;49.20;;;;;;4043193;29;20037;-57
2022/11/10 07:39:38;;;;;;;2.75;0.90;;;27.90;49.10;;;;;;4047209;28;20039;-54
2022/11/10 07:42:04;;;;;;;3.88;1.45;;;27.90;49.30;;;;;;4045946;29;20044;-58
2022/11/10 07:44:27;;;;;;;3.53;1.00;;;27.80;49.10;;;;;;4045254;29;20527;-57
2022/11/10 07:46:49;;;;;;;2.60;0.98;;;27.80;49.40;;;;;;4043763;29;20430;-58
2022/11/10 07:49:12;;;;;;;2.58;1.20;;;27.80;49.80;;;;;;4046899;29;20131;-58
2022/11/10 07:51:34;;;;;;;5.43;1.35;;;27.80;49.90;;;;;;4041847;29;20080;-57
2022/11/10 07:53:57;;;;;;;1.13;0.70;;;27.80;50.00;;;;;;4044931;29;20442;-59
2022/11/10 07:56:20;;;;;;;2.83;1.20;;;27.80;50.20;;;;;;4045359;29;20032;-58
2022/11/10 07:58:43;;;;;;;1.70;0.60;;;27.80;51.10;;;;;;4044062;29;20039;-57
2022/11/10 08:01:05;;;;;;;1.30;0.80;;;27.80;50.60;;;;;;4052042;29;20040;-58
2022/11/10 08:03:28;;;;;;;1.20;0.75;;;27.80;50.60;;;;;;4048511;29;20051;-56
2022/11/10 08:05:51;;;;;;;0.93;0.60;;;27.80;50.80;;;;;;4056718;29;20036;-59
2022/11/10 08:08:13;;;;;;;1.67;0.83;;;27.90;50.80;;;;;;4055379;29;20147;-57
2022/11/10 08:10:36;;;;;;;3.50;0.93;;;27.80;50.90;;;;;;4050676;29;20131;-57
2022/11/10 08:13:00;;;;;;;1.70;0.73;;;27.80;50.80;;;;;;4044659;29;20060;-57
2022/11/10 08:15:24;;;;;;;1.88;0.68;;;27.80;50.70;;;;;;4042879;29;20373;-57
2022/11/10 08:17:47;;;;;;;2.97;0.90;;;27.80;50.80;;;;;;4041366;29;20044;-57
2022/11/10 08:20:10;;;;;;;2.03;0.68;;;27.80;50.70;;;;;;4040579;29;20071;-55
2022/11/10 08:22:32;;;;;;;1.42;0.65;;;27.70;50.60;;;;;;4041680;29;20076;-57
2022/11/10 08:24:55;;;;;;;2.10;0.80;;;27.80;50.70;;;;;;4043505;29;20106;-54
2022/11/10 08:27:17;;;;;;;1.23;0.80;;;27.70;50.70;;;;;;4046157;29;20522;-56
2022/11/10 08:29:40;;;;;;;1.70;0.60;;;27.70;50.70;;;;;;4042963;29;20635;-55
2022/11/10 08:32:03;;;;;;;1.48;0.63;;;27.70;50.70;;;;;;4043282;29;20513;-56
2022/11/10 08:34:25;;;;;;;1.03;0.70;;;27.70;50.80;;;;;;4039881;29;20052;-57
2022/11/10 08:36:50;;;;;;;2.15;0.80;;;27.60;50.70;;;;;;4039662;29;20043;-56
2022/11/10 08:39:13;;;;;;;0.75;0.60;;;27.70;50.80;;;;;;4047088;29;20058;-54
2022/11/10 08:41:35;;;;;;;0.98;0.60;;;27.60;50.70;;;;;;4041396;29;20064;-57
2022/11/10 08:43:58;;;;;;;10.27;0.90;;;27.60;50.70;;;;;;4046677;29;20044;-57
2022/11/10 08:46:21;;;;;;;5.47;1.23;;;27.60;50.90;;;;;;4042139;29;20040;-58
2022/11/10 08:48:43;;;;;;;1.55;0.70;;;27.60;51.90;;;;;;4042192;29;20555;-56
2022/11/10 08:51:06;;;;;;;2.05;0.70;;;27.50;52.40;;;;;;4044458;29;20052;-58
2022/11/10 08:53:28;;;;;;;0.77;0.50;;;27.40;52.70;;;;;;4044565;29;20501;-57
2022/11/10 08:55:54;;;;;;;1.38;0.57;;;27.30;53.10;;;;;;4046851;29;20079;-57
2022/11/10 08:58:22;;;;;;;3.50;0.90;;;27.20;53.30;;;;;;4044000;29;20499;-58
2022/11/10 09:00:45;;;;;;;1.95;0.98;;;27.20;53.60;;;;;;4047667;29;20410;-57
2022/11/10 09:03:15;;;;;;;1.77;0.90;;;27.20;53.80;;;;;;4046540;29;20087;-59
2022/11/10 09:05:37;;;;;;;1.20;0.55;;;27.20;53.90;;;;;;4042940;29;20571;-58
2022/11/10 09:08:00;;;;;;;2.38;0.50;;;27.20;54.00;;;;;;4046320;29;20079;-58
2022/11/10 09:10:23;;;;;;;0.70;0.45;;;27.20;54.00;;;;;;4045047;29;20550;-53
2022/11/10 09:12:45;;;;;;;1.63;0.70;;;27.10;54.00;;;;;;4040928;29;20058;-57
2022/11/10 09:15:09;;;;;;;1.02;0.70;;;27.10;54.10;;;;;;4042577;29;20048;-55
2022/11/10 09:17:32;;;;;;;2.83;0.50;;;27.10;54.10;;;;;;4043448;29;20087;-60
2022/11/10 09:19:55;;;;;;;20.50;0.82;;;27.10;54.20;;;;;;4049060;29;20032;-57
2022/11/10 09:22:17;;;;;;;0.75;0.40;;;27.10;54.20;;;;;;4051047;29;20050;-56
2022/11/10 09:24:40;;;;;;;1.63;0.60;;;27.10;54.20;;;;;;4045046;29;20045;-55
2022/11/10 09:27:02;;;;;;;2.42;0.80;;;27.10;54.20;;;;;;4037844;29;20290;-56
2022/11/10 09:29:25;;;;;;;2.80;0.60;;;27.10;54.30;;;;;;4041054;29;20480;-55
2022/11/10 09:31:48;;;;;;;1.13;0.50;;;27.10;54.30;;;;;;4045361;29;20072;-55
2022/11/10 09:34:10;;;;;;;1.98;1.23;;;27.10;54.40;;;;;;4040160;29;20378;-52
2022/11/10 09:36:33;;;;;;;1.25;0.70;;;27.10;54.20;;;;;;4042135;29;20175;-54
2022/11/10 09:38:55;;;;;;;2.97;1.00;;;27.10;53.20;;;;;;4041233;29;20062;-56
2022/11/10 09:41:18;;;;;;;3.58;0.95;;;27.00;53.00;;;;;;4045337;29;20748;-54
2022/11/10 09:43:48;;;;;;;2.53;1.05;;;26.90;53.10;;;;;;4038624;29;20045;-53
2022/11/10 09:46:30;;;;;;;1.83;0.77;;;26.90;52.90;;;;;;4042606;29;20397;-56
2022/11/10 09:49:25;;;;;;;5.45;0.90;;;26.80;52.70;;;;;;4044895;29;20051;-57
2022/11/10 09:51:48;;;;;;;2.83;0.88;;;26.80;53.10;;;;;;4043862;29;20050;-54
2022/11/10 09:54:48;;;;;;;1.15;0.60;;;26.80;53.30;;;;;;4040549;29;20502;-58
2022/11/10 09:57:18;;;;;;;5.50;0.65;;;26.80;53.50;;;;;;4043543;29;20139;-57
2022/11/10 09:59:42;;;;;;;0.85;0.40;;;26.80;53.70;;;;;;4041729;29;20040;-57
2022/11/10 10:02:41;;;;;;;4.13;0.98;;;26.80;53.80;;;;;;4043579;29;20093;-57
2022/11/10 10:05:33;;;;;;;1.25;0.50;;;26.80;53.90;;;;;;4042588;29;20054;-55
2022/11/10 10:08:04;;;;;;;1.42;0.47;;;26.80;54.10;;;;;;4045402;29;20468;-57
2022/11/10 10:10:41;;;;;;;1.58;0.57;;;26.80;54.10;;;;;;4040925;29;20393;-57
2022/11/10 10:13:29;;;;;;;1.45;0.63;;;26.80;54.10;;;;;;4041281;29;20950;-58
2022/11/10 10:16:11;;;;;;;1.08;0.50;;;26.80;54.20;;;;;;4027929;29;20055;-59
2022/11/10 10:19:10;;;;;;;1.13;0.75;;;26.80;54.30;;;;;;4040414;29;20486;-57
2022/11/10 10:21:53;;;;;;;6.78;0.77;;;26.80;54.30;;;;;;4031243;29;20052;-58
2022/11/10 10:24:19;;;;;;;1.27;0.40;;;26.80;54.30;;;;;;4039131;29;20072;-57
2022/11/10 10:26:52;;;;;;;0.57;0.43;;;26.80;54.40;;;;;;4049012;29;20503;-57
2022/11/10 10:29:44;;;;;;;1.30;0.68;;;26.80;54.50;;;;;;4042159;29;20048;-58
2022/11/10 10:32:15;;;;;;;3.60;0.50;;;26.80;54.50;;;;;;4039862;29;20049;-54
2022/11/10 10:34:38;;;;;;;1.83;0.50;;;26.80;54.50;;;;;;4036324;29;20045;-57
2022/11/10 10:37:01;;;;;;;2.80;0.40;;;26.80;54.50;;;;;;4040343;29;20130;-57
2022/11/10 10:39:43;;;;;;;2.85;0.55;;;26.80;54.60;;;;;;4043874;29;20048;-58
2022/11/10 10:42:30;;;;;;;1.08;0.45;;;26.80;54.60;;;;;;4043705;29;20120;-52
2022/11/10 10:45:20;;;;;;;1.08;0.40;;;26.80;54.60;;;;;;4044550;29;20063;-55
2022/11/10 10:47:43;;;;;;;1.63;0.60;;;26.80;54.70;;;;;;4045371;29;20052;-56
2022/11/10 10:50:29;;;;;;;1.42;0.60;;;26.80;54.70;;;;;;4042308;29;20044;-57
2022/11/10 10:53:13;;;;;;;0.63;0.40;;;26.80;54.70;;;;;;4040696;29;20071;-54
2022/11/10 10:55:37;;;;;;;1.27;0.65;;;26.80;54.70;;;;;;4039628;29;20036;-57
2022/11/10 10:58:05;;;;;;;2.70;0.70;;;26.80;54.80;;;;;;4044928;29;20046;-58
2022/11/10 11:00:28;;;;;;;2.60;0.68;;;26.80;54.90;;;;;;4047684;29;20227;-57
2022/11/10 11:03:10;;;;;;;2.60;0.50;;;26.80;54.90;;;;;;4046039;29;20036;-57
2022/11/10 11:05:33;;;;;;;4.43;0.57;;;26.80;54.90;;;;;;4041429;29;20049;-55
2022/11/10 11:08:01;;;;;;;1.53;0.50;;;26.80;54.80;;;;;;4043387;29;20033;-54
2022/11/10 11:10:30;;;;;;;0.60;0.30;;;26.70;54.80;;;;;;4044879;29;20496;-56
2022/11/10 11:12:53;;;;;;;2.70;0.57;;;26.70;54.80;;;;;;4044600;29;20048;-58
2022/11/10 11:15:29;;;;;;;29.60;1.75;;;26.70;54.70;;;;;;4040816;28;20040;-56
2022/11/10 11:18:15;;;;;;;22.13;2.25;;;26.70;54.80;;;;;;4046898;29;20036;-53
2022/11/10 11:21:09;;;;;;;33.58;3.85;;;26.70;55.00;;;;;;4048898;29;20484;-57
2022/11/10 11:23:58;;;;;;;23.25;3.58;;;26.80;55.00;;;;;;4043753;29;20255;-58
2022/11/10 11:26:48;;;;;;;22.77;3.35;;;26.80;55.10;;;;;;4045495;29;20099;-58
2022/11/10 11:29:32;;;;;;;10.30;1.80;;;26.80;55.10;;;;;;4040128;29;20481;-60
2022/11/10 11:32:03;;;;;;;10.80;1.70;;;26.70;55.10;;;;;;4046103;29;20032;-60
2022/11/10 11:34:56;;;;;;;4.80;1.40;;;26.70;55.70;;;;;;4043645;29;20052;-59
2022/11/10 11:37:48;;;;;;;4.45;1.02;;;26.70;54.90;;;;;;4044139;29;20464;-58
2022/11/10 11:40:17;;;;;;;5.90;1.85;;;26.70;54.90;;;;;;4038908;29;20048;-59
2022/11/10 11:42:53;;;;;;;7.90;1.20;;;26.70;55.00;;;;;;4059109;29;20038;-62
2022/11/10 11:45:26;;;;;;;10.35;1.65;;;26.70;55.00;;;;;;4048554;29;20063;-58
2022/11/10 11:47:52;;;;;;;6.65;1.40;;;26.70;55.20;;;;;;4046291;29;20114;-56
2022/11/10 11:50:21;;;;;;;24.35;2.28;;;26.70;55.20;;;;;;4051869;29;20121;-58
2022/11/10 11:53:07;;;;;;;10.27;1.55;;;26.70;55.30;;;;;;4050968;29;20047;-58
2022/11/10 11:56:00;;;;;;;7.85;1.30;;;26.70;55.20;;;;;;4045025;29;20067;-57
2022/11/10 11:58:36;;;;;;;6.47;0.98;;;26.70;55.30;;;;;;4045096;29;20046;-58
2022/11/10 12:01:07;;;;;;;3.42;1.10;;;26.70;55.30;;;;;;4049244;29;20048;-49
2022/11/10 12:03:57;;;;;;;5.07;0.80;;;26.70;55.30;;;;;;4049516;29;20257;-53
2022/11/10 12:06:34;;;;;;;3.65;1.00;;;26.70;55.30;;;;;;4045945;29;20484;-55
2022/11/10 12:09:30;;;;;;;8.05;1.05;;;26.70;55.30;;;;;;4052694;29;20059;-57
2022/11/10 12:12:14;;;;;;;4.45;1.00;;;26.70;55.30;;;;;;4046866;29;20045;-58
2022/11/10 12:14:57;;;;;;;6.43;1.23;;;26.70;55.30;;;;;;4048486;29;20047;-52
2022/11/10 12:17:48;;;;;;;4.82;0.98;;;26.70;55.40;;;;;;4049562;29;20128;-55
2022/11/10 12:20:26;;;;;;;3.05;0.50;;;26.70;55.40;;;;;;4045634;29;20397;-56
2022/11/10 12:23:19;;;;;;;1.08;0.65;;;26.60;55.30;;;;;;4047772;29;20044;-55
2022/11/10 12:26:09;;;;;;;3.85;0.63;;;26.60;55.30;;;;;;4045772;29;20114;-54
2022/11/10 12:28:47;;;;;;;1.42;0.63;;;26.60;55.20;;;;;;4044940;29;20116;-60
2022/11/10 12:31:22;;;;;;;1.65;0.50;;;26.60;55.30;;;;;;4048452;29;20491;-56
2022/11/10 12:33:58;;;;;;;3.88;0.70;;;26.60;55.20;;;;;;4041355;29;20493;-58
2022/11/10 12:36:23;;;;;;;1.50;0.60;;;26.50;55.20;;;;;;4049701;29;20068;-57
2022/11/10 12:39:05;;;;;;;3.10;0.75;;;26.50;55.20;;;;;;4053736;29;20040;-58
2022/11/10 12:41:36;;;;;;;1.33;0.52;;;26.50;55.20;;;;;;4058698;29;20064;-57
2022/11/10 12:44:14;;;;;;;1.80;0.43;;;26.50;55.20;;;;;;4060196;29;20036;-58
2022/11/10 12:46:36;;;;;;;2.55;0.77;;;26.50;55.20;;;;;;4049603;29;20039;-58
2022/11/10 12:49:18;;;;;;;6.47;1.10;;;26.50;55.20;;;;;;4044244;29;20212;-58
2022/11/10 12:52:08;;;;;;;16.58;1.52;;;26.50;55.30;;;;;;4047146;29;20063;-52
2022/11/10 12:54:31;;;;;;;11.63;1.40;;;26.40;55.30;;;;;;4049731;29;21490;-58